Time;durP1;ratioP1;P1;durP2;ratioP2;P2;SDS_P1;SDS_P2;PMS_P1;PMS_P2;Temp;Humidity;BMP_temperature;BMP_pressure;BME280_temperature;BME280_humidity;BME280_pressure;Samples;Min_cycle;Max_cycle;Signal;HPM_P1;HPM_P2
2021/07/10 05:01:51;;;;;;;5.25;3.78;;;;;;;24.91;55.44;94871.34;5415125;23;20063;-75
2021/07/10 05:04:16;;;;;;;6.57;3.67;;;;;;;25.50;54.96;94866.38;5007747;28;20038;-75
2021/07/10 05:06:42;;;;;;;4.05;3.20;;;;;;;26.09;54.30;94873.75;5009616;28;20026;-75
2021/07/10 05:09:07;;;;;;;3.15;2.95;;;;;;;25.49;54.97;94872.78;4990576;28;20510;-75
2021/07/10 05:11:32;;;;;;;3.70;3.40;;;;;;;26.23;53.82;94877.50;5025887;28;20504;-75
2021/07/10 05:13:59;;;;;;;4.25;3.88;;;;;;;27.75;50.53;94883.59;5025661;28;20064;-76
2021/07/10 05:16:25;;;;;;;3.55;3.28;;;;;;;28.57;48.41;94884.41;5023590;28;20104;-77
2021/07/10 05:18:50;;;;;;;3.80;3.50;;;;;;;29.09;46.74;94882.72;4997268;28;20026;-76
2021/07/10 05:21:16;;;;;;;4.97;2.97;;;;;;;29.26;44.64;94883.81;4969149;28;20026;-75
2021/07/10 05:23:41;;;;;;;3.55;3.20;;;;;;;29.86;43.72;94888.53;4971115;28;20030;-75
2021/07/10 05:26:09;;;;;;;3.40;3.10;;;;;;;29.24;45.11;94902.00;4988280;28;20046;-76
2021/07/10 05:28:35;;;;;;;3.53;3.22;;;;;;;30.52;41.13;94898.84;5008817;28;20414;-75
2021/07/10 05:31:00;;;;;;;7.70;3.13;;;;;;;29.97;42.17;94897.94;4978118;28;20202;-76
2021/07/10 05:33:26;;;;;;;3.03;2.83;;;;;;;29.39;44.75;94895.63;4987165;28;20106;-75
2021/07/10 05:35:51;;;;;;;5.65;2.92;;;;;;;29.43;44.76;94893.19;4996998;28;20022;-75
2021/07/10 05:38:17;;;;;;;4.20;2.70;;;;;;;30.07;43.78;94885.22;4979032;28;20027;-77
2021/07/10 05:40:42;;;;;;;5.15;3.00;;;;;;;30.51;43.67;94889.22;4988993;28;20030;-76
2021/07/10 05:43:08;;;;;;;2.40;2.20;;;;;;;29.57;44.72;94902.81;4987267;28;20037;-75
2021/07/10 05:45:34;;;;;;;4.70;3.00;;;;;;;31.42;41.77;94906.09;4988660;28;20026;-75
2021/07/10 05:47:59;;;;;;;4.53;2.72;;;;;;;31.66;41.01;94899.38;5008506;28;20033;-76
2021/07/10 05:50:25;;;;;;;2.70;2.45;;;;;;;29.60;42.78;94894.25;4999316;28;20109;-76
2021/07/10 05:52:50;;;;;;;3.92;2.10;;;;;;;32.22;38.46;94893.47;4997949;28;20400;-76
2021/07/10 05:55:16;;;;;;;5.80;2.47;;;;;;;31.23;40.34;94895.53;4995032;28;20029;-75
2021/07/10 05:57:41;;;;;;;6.75;2.83;;;;;;;32.80;38.12;94892.44;5009063;28;20109;-76
2021/07/10 06:00:08;;;;;;;4.88;2.58;;;;;;;32.89;37.73;94904.00;4974900;28;20026;-76
2021/07/10 06:02:33;;;;;;;3.78;3.13;;;;;;;31.37;40.44;94896.28;5008526;28;20521;-76
2021/07/10 06:04:58;;;;;;;3.10;2.70;;;;;;;30.47;41.10;94885.59;4971764;28;20026;-75
2021/07/10 06:07:24;;;;;;;4.65;2.63;;;;;;;29.39;41.93;94892.97;4985764;28;20041;-75
2021/07/10 06:09:49;;;;;;;4.38;2.60;;;;;;;31.06;40.19;94900.72;5011646;28;20030;-74
2021/07/10 06:12:15;;;;;;;3.80;2.58;;;;;;;31.28;38.15;94898.88;5007184;28;20031;-75
2021/07/10 06:14:40;;;;;;;4.18;2.58;;;;;;;33.13;37.46;94888.31;4992954;28;20034;-76
2021/07/10 06:17:06;;;;;;;6.78;1.95;;;;;;;32.48;37.72;94898.94;5007427;28;20580;-76
2021/07/10 06:19:31;;;;;;;2.72;2.42;;;;;;;28.46;42.92;94890.13;5009673;28;20030;-73
2021/07/10 06:21:58;;;;;;;3.33;2.22;;;;;;;29.75;41.26;94882.53;5005695;28;20050;-74
2021/07/10 06:24:25;;;;;;;5.60;2.17;;;;;;;29.75;40.33;94887.88;4992229;28;20030;-74
2021/07/10 06:26:50;;;;;;;3.40;2.35;;;;;;;30.98;38.91;94882.72;5007220;28;20034;-76
2021/07/10 06:29:16;;;;;;;3.15;2.30;;;;;;;34.04;36.37;94890.00;4977038;28;20450;-76
2021/07/10 06:31:41;;;;;;;3.40;2.70;;;;;;;33.54;35.55;94887.03;4985966;28;20393;-75
2021/07/10 06:34:09;;;;;;;5.28;2.20;;;;;;;33.13;36.66;94888.31;4970305;28;20041;-75
2021/07/10 06:36:35;;;;;;;2.58;1.90;;;;;;;32.91;35.61;94891.06;4976776;28;20038;-74
2021/07/10 06:39:00;;;;;;;2.20;2.10;;;;;;;31.86;37.82;94896.22;5004646;28;20033;-75
2021/07/10 06:41:26;;;;;;;5.35;2.30;;;;;;;32.31;36.57;94904.22;5018714;28;20029;-75
2021/07/10 06:43:51;;;;;;;2.83;2.55;;;;;;;29.22;41.10;94893.44;5009570;28;20514;-75
2021/07/10 06:46:17;;;;;;;2.97;2.17;;;;;;;29.55;43.71;94888.97;5012469;28;20125;-75
2021/07/10 06:48:42;;;;;;;5.50;2.35;;;;;;;29.40;43.53;94881.22;5013802;28;20053;-74
2021/07/10 06:51:08;;;;;;;3.88;2.38;;;;;;;29.41;44.74;94890.78;5018750;28;20036;-75
2021/07/10 06:53:33;;;;;;;3.60;2.30;;;;;;;29.13;45.85;94899.72;5009121;28;20030;-74
2021/07/10 06:55:59;;;;;;;3.67;2.53;;;;;;;29.51;45.99;94889.88;5007028;28;20026;-75
2021/07/10 06:58:24;;;;;;;3.55;2.25;;;;;;;29.81;41.49;94889.38;5008988;28;20026;-75
2021/07/10 07:00:50;;;;;;;2.45;2.25;;;;;;;34.30;35.05;94888.06;4999830;28;20092;-75
2021/07/10 07:03:15;;;;;;;4.65;2.50;;;;;;;35.01;34.64;94883.66;4993979;28;20064;-76
2021/07/10 07:05:40;;;;;;;8.57;2.70;;;;;;;32.58;38.13;94884.50;4989344;28;20038;-75
2021/07/10 07:08:06;;;;;;;3.78;2.33;;;;;;;30.17;44.33;94889.59;4990296;28;20414;-75
2021/07/10 07:10:32;;;;;;;6.40;3.00;;;;;;;30.27;46.60;94887.53;4982426;28;20022;-75
2021/07/10 07:12:57;;;;;;;2.80;2.60;;;;;;;29.13;46.01;94881.03;4977508;28;20026;-72
2021/07/10 07:15:23;;;;;;;3.40;2.70;;;;;;;27.99;47.64;94888.19;5001105;28;20068;-74
2021/07/10 07:17:48;;;;;;;3.65;2.65;;;;;;;27.64;49.91;94887.44;5022676;28;20022;-74
2021/07/10 07:20:15;;;;;;;3.80;2.33;;;;;;;27.98;48.38;94886.59;4986952;28;20492;-74
2021/07/10 07:22:43;;;;;;;4.35;2.83;;;;;;;27.86;51.51;94891.50;5001930;28;20399;-75
2021/07/10 07:25:09;;;;;;;3.95;2.83;;;;;;;28.33;50.17;94893.47;5005404;28;20026;-74
2021/07/10 07:27:35;;;;;;;3.20;3.00;;;;;;;27.53;49.56;94890.44;5011298;28;20212;-74
2021/07/10 07:30:00;;;;;;;3.13;2.80;;;;;;;27.15;49.59;94884.00;5017056;28;20026;-74
2021/07/10 07:32:27;;;;;;;2.83;2.40;;;;;;;27.53;47.35;94885.91;4990172;28;20029;-74
2021/07/10 07:34:52;;;;;;;6.22;2.88;;;;;;;27.77;48.04;94885.19;5006267;28;20564;-75
2021/07/10 07:37:18;;;;;;;4.45;2.50;;;;;;;29.32;46.39;94860.50;5006119;28;20029;-75
2021/07/10 07:39:46;;;;;;;4.90;3.10;;;;;;;28.38;46.55;94883.56;4988801;28;20040;-74
2021/07/10 07:42:14;;;;;;;4.22;2.83;;;;;;;27.01;49.47;94883.81;4988777;28;20026;-72
2021/07/10 07:44:41;;;;;;;6.07;2.88;;;;;;;28.02;47.68;94874.31;5015244;28;20035;-74
2021/07/10 07:47:08;;;;;;;2.95;2.60;;;;;;;28.44;48.49;94876.28;5014275;28;20392;-75
2021/07/10 07:49:34;;;;;;;6.32;2.90;;;;;;;30.30;44.29;94883.47;4990484;28;20092;-74
2021/07/10 07:51:59;;;;;;;4.47;2.58;;;;;;;29.66;44.99;94863.72;5022168;28;20490;-75
2021/07/10 07:54:27;;;;;;;3.17;2.65;;;;;;;29.90;44.35;94868.13;5009775;28;20048;-75
2021/07/10 07:56:53;;;;;;;6.35;3.15;;;;;;;29.11;44.25;94873.31;4991782;28;20030;-75
2021/07/10 07:59:19;;;;;;;4.78;2.95;;;;;;;29.30;46.25;94870.69;5009461;28;20537;-75
2021/07/10 08:01:44;;;;;;;3.83;2.67;;;;;;;28.84;46.66;94857.16;5000124;28;20068;-74
2021/07/10 08:04:09;;;;;;;6.28;3.30;;;;;;;29.22;47.28;94863.28;4987156;28;20030;-74
2021/07/10 08:06:35;;;;;;;2.92;2.72;;;;;;;28.86;46.21;94864.88;5007418;28;20041;-74
2021/07/10 08:09:00;;;;;;;6.97;2.83;;;;;;;28.85;47.85;94863.28;5020243;28;20105;-75
2021/07/10 08:11:26;;;;;;;2.65;2.45;;;;;;;29.30;48.09;94862.66;4970182;28;20045;-74
2021/07/10 08:13:51;;;;;;;4.03;2.80;;;;;;;27.68;48.87;94850.38;4986602;28;20418;-73
2021/07/10 08:16:17;;;;;;;9.40;3.47;;;;;;;29.69;47.63;94852.44;4989463;28;20056;-75
2021/07/10 08:18:42;;;;;;;5.28;3.00;;;;;;;29.78;46.63;94852.56;4987684;28;20034;-75
2021/07/10 08:21:08;;;;;;;7.47;2.85;;;;;;;28.41;46.77;94845.66;5005470;28;20034;-74
2021/07/10 08:23:33;;;;;;;5.82;2.75;;;;;;;29.72;45.86;94848.38;4985945;28;20065;-74
2021/07/10 08:25:59;;;;;;;4.13;2.90;;;;;;;29.98;45.12;94843.44;4984521;28;20493;-73
2021/07/10 08:28:24;;;;;;;2.60;2.42;;;;;;;29.51;45.46;94845.25;4979674;28;20943;-74
2021/07/10 08:30:50;;;;;;;3.92;2.33;;;;;;;30.24;45.84;94845.34;4995442;28;20046;-74
2021/07/10 08:33:15;;;;;;;3.10;2.90;;;;;;;30.01;47.46;94845.50;4961824;28;20034;-74
2021/07/10 08:35:40;;;;;;;5.40;2.85;;;;;;;30.59;45.31;94809.09;4970233;28;20033;-75
2021/07/10 08:38:09;;;;;;;3.30;2.58;;;;;;;29.34;46.51;94849.53;5008712;28;20053;-73
2021/07/10 08:40:35;;;;;;;3.38;2.47;;;;;;;29.99;45.24;94853.81;4994275;28;20417;-73
2021/07/10 08:43:00;;;;;;;3.13;2.70;;;;;;;29.30;47.60;94852.00;5003422;28;20138;-73
2021/07/10 08:45:27;;;;;;;11.52;3.05;;;;;;;28.84;47.08;94856.34;5000711;28;20474;-73
2021/07/10 08:47:53;;;;;;;4.65;2.90;;;;;;;28.92;45.89;94853.06;4982166;28;20607;-74
2021/07/10 08:50:20;;;;;;;5.88;3.40;;;;;;;27.91;47.77;94849.63;4996904;28;20030;-72
2021/07/10 08:52:45;;;;;;;4.57;3.03;;;;;;;29.23;49.52;94849.66;5003490;28;20084;-74
2021/07/10 08:55:12;;;;;;;3.63;2.78;;;;;;;29.40;47.33;94849.16;4981457;28;20109;-73
2021/07/10 08:57:39;;;;;;;3.20;3.00;;;;;;;29.61;47.74;94839.75;4995580;28;20033;-73
2021/07/10 09:00:20;;;;;;;3.17;2.78;;;;;;;29.36;44.10;94850.81;4988653;28;20022;-73
2021/07/10 09:02:48;;;;;;;8.90;3.00;;;;;;;29.19;46.18;94837.97;5005275;28;20054;-73
2021/07/10 09:05:13;;;;;;;14.02;3.28;;;;;;;28.60;47.05;94837.69;4986107;28;20038;-73
2021/07/10 09:08:16;;;;;;;5.35;2.90;;;;;;;28.51;48.31;94834.09;4985920;28;20526;-73
2021/07/10 09:11:00;;;;;;;5.38;4.38;;;;;;;29.33;48.22;94840.72;4998500;28;20044;-73
2021/07/10 09:13:34;;;;;;;4.32;2.90;;;;;;;28.92;46.34;94843.19;4998894;28;20079;-71
2021/07/10 09:16:13;;;;;;;3.25;3.05;;;;;;;28.07;46.52;94836.97;4991126;28;20033;-72
2021/07/10 09:18:40;;;;;;;;;;;;;;;28.87;47.61;94834.44;5001629;28;20426;-72
2021/07/10 09:21:05;;;;;;;2.72;2.58;;;;;;;28.95;43.62;94831.13;5002627;28;19913;-71
2021/07/10 09:23:39;;;;;;;5.53;3.35;;;;;;;29.97;42.54;94836.47;4988269;28;20041;-72
2021/07/10 09:26:31;;;;;;;3.60;2.83;;;;;;;28.88;44.40;94828.81;4983557;28;20030;-72
2021/07/10 09:29:00;;;;;;;5.78;2.53;;;;;;;29.14;44.36;94826.59;4983409;28;20559;-72
2021/07/10 09:31:33;;;;;;;9.02;3.00;;;;;;;29.41;42.89;94833.94;4982590;28;20069;-72
2021/07/10 09:34:11;;;;;;;3.63;2.90;;;;;;;29.13;43.17;94827.66;4968318;28;20026;-71
2021/07/10 09:36:37;;;;;;;4.82;2.65;;;;;;;30.06;41.82;94814.13;4966436;28;20491;-73
2021/07/10 09:39:03;;;;;;;3.22;2.60;;;;;;;30.05;42.13;94825.91;4975659;28;20088;-73
2021/07/10 09:41:30;;;;;;;3.88;2.70;;;;;;;29.35;43.68;94821.78;5003212;28;20049;-71
2021/07/10 09:44:10;;;;;;;3.50;2.80;;;;;;;28.92;42.00;94815.69;5008958;28;20584;-72
2021/07/10 09:46:36;;;;;;;7.25;2.50;;;;;;;28.99;44.13;94818.81;4987304;28;20607;-71
2021/07/10 09:49:22;;;;;;;2.92;2.60;;;;;;;29.56;42.42;94820.34;4981236;28;20046;-71
2021/07/10 09:51:48;;;;;;;4.18;2.70;;;;;;;29.54;42.82;94820.63;4980909;28;20057;-71
2021/07/10 09:54:14;;;;;;;3.30;2.97;;;;;;;29.04;42.93;94811.50;5003068;28;20018;-72
2021/07/10 09:57:20;;;;;;;2.85;2.38;;;;;;;29.92;41.91;94816.00;4985237;28;20030;-70
2021/07/10 10:00:16;;;;;;;3.00;2.70;;;;;;;29.66;41.53;94804.94;4983045;28;20042;-70
2021/07/10 10:02:55;;;;;;;2.58;2.38;;;;;;;29.54;41.94;94809.94;4985978;28;20047;-71
2021/07/10 10:05:22;;;;;;;4.68;2.80;;;;;;;30.00;42.70;94815.31;4972793;28;20481;-70
2021/07/10 10:07:59;;;;;;;2.92;2.72;;;;;;;29.50;42.10;94811.63;4991873;28;20033;-70
2021/07/10 10:10:28;;;;;;;2.45;2.25;;;;;;;29.98;41.54;94814.03;4988936;28;20496;-70
2021/07/10 10:13:09;;;;;;;3.33;2.40;;;;;;;29.07;41.95;94820.81;4994526;28;20484;-70
2021/07/10 10:15:37;;;;;;;4.03;2.90;;;;;;;29.40;40.80;94808.31;4991912;28;20030;-70
2021/07/10 10:18:06;;;;;;;5.07;2.50;;;;;;;29.38;41.72;94803.25;4998287;28;20030;-71
2021/07/10 10:20:31;;;;;;;;;;;;;;;29.44;41.79;94791.44;5013817;28;20083;-70
2021/07/10 10:22:59;;;;;;;2.13;2.03;;;;;;;29.68;42.31;94808.09;5009987;28;20385;-70
2021/07/10 10:25:24;;;;;;;3.22;2.35;;;;;;;28.85;39.98;94815.25;4994015;28;20176;-70
2021/07/10 10:27:50;;;;;;;2.88;2.67;;;;;;;29.38;41.79;94803.25;5003394;28;20034;-71
2021/07/10 10:30:18;;;;;;;5.85;2.40;;;;;;;29.43;42.53;94810.41;5006339;28;20026;-70
2021/07/10 10:32:44;;;;;;;7.75;2.88;;;;;;;29.56;39.60;94805.13;5006056;28;20119;-70
2021/07/10 10:35:09;;;;;;;3.78;2.33;;;;;;;29.15;41.15;94804.97;5014436;28;20410;-70
2021/07/10 10:37:36;;;;;;;3.03;2.63;;;;;;;29.61;40.75;94797.00;5003176;28;20036;-71
2021/07/10 10:40:05;;;;;;;2.35;2.15;;;;;;;29.70;42.92;94800.59;4988906;28;20475;-71
2021/07/10 10:42:30;;;;;;;2.38;2.17;;;;;;;29.83;40.73;94793.72;4997722;28;20248;-71
2021/07/10 10:44:57;;;;;;;2.90;2.50;;;;;;;29.35;40.22;94798.50;4981216;28;20104;-71
2021/07/10 10:47:23;;;;;;;4.00;2.85;;;;;;;29.86;41.36;94787.81;4982618;28;20084;-72
2021/07/10 10:49:55;;;;;;;3.58;2.47;;;;;;;29.70;40.99;94789.91;5001674;28;20463;-71
2021/07/10 10:52:30;;;;;;;3.25;2.35;;;;;;;29.59;39.87;94788.50;4976810;28;20050;-72
2021/07/10 10:54:57;;;;;;;3.10;2.20;;;;;;;29.02;38.91;94781.66;5008425;28;20033;-71
2021/07/10 10:57:56;;;;;;;3.60;2.20;;;;;;;29.46;39.11;94783.91;4979903;28;20041;-72
2021/07/10 11:00:24;;;;;;;3.50;2.58;;;;;;;29.47;37.90;94785.50;4984211;28;20042;-71
2021/07/10 11:02:50;;;;;;;3.92;2.40;;;;;;;29.01;38.71;94789.94;5015146;28;20580;-72
2021/07/10 11:05:46;;;;;;;3.92;2.80;;;;;;;29.98;39.12;94782.75;5003495;28;20058;-72
2021/07/10 11:08:18;;;;;;;3.30;2.70;;;;;;;29.20;40.37;94775.50;5005631;28;20034;-71
2021/07/10 11:10:52;;;;;;;3.10;2.20;;;;;;;29.48;39.87;94776.41;5005960;28;20503;-72
2021/07/10 11:13:41;;;;;;;2.50;2.30;;;;;;;29.66;39.59;94772.91;5006985;28;20026;-72
2021/07/10 11:16:17;;;;;;;3.58;2.28;;;;;;;29.70;38.68;94779.22;4989864;28;20049;-72
2021/07/10 11:18:56;;;;;;;3.03;1.98;;;;;;;29.82;38.43;94776.09;4970483;28;20452;-71
2021/07/10 11:21:47;;;;;;;2.58;2.13;;;;;;;29.43;38.64;94765.81;4981319;28;20109;-71
2021/07/10 11:24:16;;;;;;;4.85;2.17;;;;;;;29.80;37.85;94768.34;4994109;28;20025;-71
2021/07/10 11:26:47;;;;;;;2.85;2.30;;;;;;;30.00;38.10;94763.75;5004656;28;20068;-71
2021/07/10 11:29:20;;;;;;;2.88;2.13;;;;;;;30.25;40.09;94757.88;4997650;28;20033;-71
2021/07/10 11:31:45;;;;;;;2.75;2.55;;;;;;;29.18;38.55;94761.66;4984656;28;20026;-71
2021/07/10 11:34:13;;;;;;;6.10;2.22;;;;;;;29.56;38.80;94750.91;4990732;28;20022;-72
2021/07/10 11:36:52;;;;;;;2.53;2.33;;;;;;;29.32;39.18;94753.72;5001359;28;20034;-71
2021/07/10 11:39:24;;;;;;;4.18;2.28;;;;;;;29.58;39.40;94754.06;4975505;28;20044;-71
2021/07/10 11:41:53;;;;;;;2.80;2.60;;;;;;;29.49;39.86;94743.28;5009094;28;20026;-72
2021/07/10 11:44:24;;;;;;;2.88;2.20;;;;;;;29.10;39.63;94750.84;4989291;28;20454;-71
2021/07/10 11:46:55;;;;;;;4.43;2.45;;;;;;;29.15;40.25;94748.91;5002625;28;20041;-72
2021/07/10 11:49:36;;;;;;;4.90;2.38;;;;;;;29.56;38.14;94741.03;4994710;28;20034;-72
2021/07/10 11:52:05;;;;;;;7.72;2.20;;;;;;;29.25;38.34;94737.31;4989189;28;20038;-70
2021/07/10 11:54:31;;;;;;;8.80;2.45;;;;;;;28.95;39.51;94732.41;5003397;28;20030;-72
2021/07/10 11:56:56;;;;;;;3.03;2.15;;;;;;;28.88;39.41;94729.31;4984046;28;20034;-71
2021/07/10 11:59:22;;;;;;;3.95;2.63;;;;;;;29.16;38.55;94734.47;4987259;28;20034;-71
2021/07/10 12:01:48;;;;;;;2.30;2.10;;;;;;;29.25;39.47;94734.63;5004040;28;20049;-74
2021/07/10 12:04:13;;;;;;;5.50;2.50;;;;;;;29.25;38.80;94731.97;4996009;28;20064;-73
2021/07/10 12:06:39;;;;;;;2.83;2.15;;;;;;;28.93;40.46;94726.59;5020988;28;20029;-74
2021/07/10 12:09:04;;;;;;;6.15;2.38;;;;;;;29.07;39.69;94722.88;4985159;28;20034;-75
2021/07/10 12:11:30;;;;;;;2.08;1.90;;;;;;;29.38;39.71;94715.16;5004300;28;20030;-73
2021/07/10 12:14:08;;;;;;;2.80;2.33;;;;;;;29.31;39.51;94720.13;4988252;28;20030;-74
2021/07/10 12:16:38;;;;;;;5.63;2.53;;;;;;;29.04;38.67;94720.00;5010843;28;20037;-73
2021/07/10 12:19:03;;;;;;;6.55;2.15;;;;;;;29.13;39.11;94715.56;5019880;28;20022;-74
2021/07/10 12:21:29;;;;;;;6.03;2.38;;;;;;;29.18;38.73;94715.50;5002280;28;20036;-74
2021/07/10 12:23:56;;;;;;;3.08;2.40;;;;;;;29.30;40.49;94707.84;5014128;28;20116;-73
2021/07/10 12:26:23;;;;;;;3.58;2.20;;;;;;;29.43;39.89;94715.09;5004157;28;20026;-74
2021/07/10 12:28:49;;;;;;;2.72;2.40;;;;;;;29.25;38.93;94719.38;4983499;28;20034;-73
2021/07/10 12:31:21;;;;;;;2.85;2.50;;;;;;;29.09;38.17;94714.59;5001519;28;20402;-73
2021/07/10 12:33:54;;;;;;;4.50;2.63;;;;;;;29.15;38.60;94716.09;5004301;28;20036;-73
2021/07/10 12:36:33;;;;;;;4.25;2.85;;;;;;;29.47;38.02;94704.63;5003878;28;20034;-73
2021/07/10 12:39:07;;;;;;;2.97;2.50;;;;;;;29.28;40.49;94708.13;4973992;28;20041;-74
2021/07/10 12:41:40;;;;;;;3.33;2.25;;;;;;;29.50;39.79;94715.50;5004280;28;20434;-74
2021/07/10 12:44:19;;;;;;;6.88;2.33;;;;;;;29.24;40.01;94709.00;4987969;28;20032;-73
2021/07/10 12:46:49;;;;;;;2.35;2.17;;;;;;;29.15;39.21;94710.75;4971673;28;20026;-76
2021/07/10 12:49:15;;;;;;;3.20;2.22;;;;;;;28.75;39.00;94704.19;5017009;28;20175;-74
2021/07/10 12:51:40;;;;;;;2.85;2.42;;;;;;;29.15;40.06;94694.75;5008316;28;20483;-73
2021/07/10 12:54:45;;;;;;;2.50;2.30;;;;;;;28.66;40.68;94696.06;4986983;28;20026;-74
2021/07/10 12:57:14;;;;;;;2.35;2.00;;;;;;;28.94;40.86;94694.28;5002451;28;20038;-73
2021/07/10 13:00:07;;;;;;;4.68;2.30;;;;;;;29.15;41.14;94692.06;5003175;28;20029;-73
2021/07/10 13:02:35;;;;;;;2.95;2.22;;;;;;;28.74;40.32;94692.72;4995383;28;20038;-73
2021/07/10 13:05:11;;;;;;;3.95;2.30;;;;;;;29.31;40.72;94698.75;4986584;28;20523;-73
2021/07/10 13:07:37;;;;;;;2.88;2.50;;;;;;;28.74;40.53;94692.72;5000800;28;20053;-73
2021/07/10 13:10:02;;;;;;;3.38;2.35;;;;;;;28.78;40.27;94683.06;4997422;28;20080;-74
2021/07/10 13:12:44;;;;;;;2.83;2.30;;;;;;;28.97;41.13;94684.88;5014444;28;20071;-73
2021/07/10 13:15:11;;;;;;;7.13;2.15;;;;;;;29.07;40.41;94682.06;4983734;28;20018;-73
2021/07/10 13:17:36;;;;;;;2.70;2.50;;;;;;;28.94;40.51;94678.25;4989369;28;20497;-73
2021/07/10 13:20:22;;;;;;;2.22;2.03;;;;;;;29.12;40.54;94669.41;5021117;28;20056;-73
2021/07/10 13:22:47;;;;;;;3.47;2.67;;;;;;;29.25;40.85;94665.25;4969391;28;20180;-74
2021/07/10 13:25:13;;;;;;;4.75;2.60;;;;;;;28.87;40.42;94659.16;4999184;28;20491;-73
2021/07/10 13:27:38;;;;;;;2.97;2.78;;;;;;;28.82;41.11;94658.47;5019793;28;20483;-74
2021/07/10 13:30:14;;;;;;;3.25;2.67;;;;;;;28.75;41.83;94650.84;4989901;28;20036;-73
2021/07/10 13:32:40;;;;;;;5.32;2.63;;;;;;;28.66;40.88;94634.72;4983508;28;20519;-73
2021/07/10 13:35:07;;;;;;;3.42;2.45;;;;;;;28.81;41.61;94627.53;4987043;28;20105;-72
2021/07/10 13:37:33;;;;;;;3.35;2.22;;;;;;;28.53;41.73;94632.75;4966953;28;20104;-72
2021/07/10 13:39:58;;;;;;;2.90;2.70;;;;;;;28.78;41.74;94632.38;4968153;28;20022;-73
2021/07/10 13:42:24;;;;;;;3.20;3.00;;;;;;;29.13;42.81;94640.84;4974141;28;20026;-74
2021/07/10 13:44:52;;;;;;;2.80;2.60;;;;;;;28.94;41.12;94634.78;5007930;28;20227;-73
2021/07/10 13:47:18;;;;;;;2.47;2.30;;;;;;;28.86;41.92;94635.47;4999289;28;20375;-73
2021/07/10 13:50:05;;;;;;;2.55;2.42;;;;;;;28.88;41.98;94631.41;5016783;28;20029;-73
2021/07/10 13:52:40;;;;;;;3.22;2.33;;;;;;;29.00;41.30;94639.75;5009725;28;20038;-73
2021/07/10 13:55:07;;;;;;;3.63;2.70;;;;;;;29.06;42.23;94640.47;5009645;28;20028;-72
2021/07/10 13:57:32;;;;;;;3.17;2.08;;;;;;;28.69;40.78;94644.00;5000075;28;20070;-72
2021/07/10 14:00:29;;;;;;;3.00;2.70;;;;;;;28.83;42.72;94630.72;5014658;28;20068;-73
2021/07/10 14:02:56;;;;;;;3.90;2.70;;;;;;;28.86;42.92;94632.81;4980114;28;20125;-72
2021/07/10 14:05:23;;;;;;;3.05;2.75;;;;;;;28.94;42.51;94626.78;5015681;28;20535;-73
2021/07/10 14:07:53;;;;;;;3.35;2.53;;;;;;;28.69;43.18;94620.81;4998795;28;20033;-72
2021/07/10 14:10:25;;;;;;;2.88;2.60;;;;;;;28.51;42.21;94612.81;4979210;28;20382;-73
2021/07/10 14:12:52;;;;;;;3.25;2.70;;;;;;;28.71;42.71;94613.28;4995993;28;20034;-72
2021/07/10 14:15:18;;;;;;;2.60;2.40;;;;;;;28.42;41.91;94615.34;4978603;28;20033;-72
2021/07/10 14:17:43;;;;;;;3.85;2.72;;;;;;;28.31;42.71;94603.25;4992305;28;20022;-71
2021/07/10 14:20:10;;;;;;;8.18;3.35;;;;;;;28.60;43.44;94611.06;4975170;28;20498;-71
2021/07/10 14:22:35;;;;;;;4.78;2.78;;;;;;;28.48;43.56;94608.84;4995540;28;20033;-71
2021/07/10 14:25:04;;;;;;;3.70;2.80;;;;;;;28.66;43.51;94609.94;4978804;28;20061;-71
2021/07/10 14:27:29;;;;;;;5.00;2.53;;;;;;;28.68;43.80;94605.88;4981600;28;20029;-72
2021/07/10 14:29:55;;;;;;;2.67;2.47;;;;;;;28.64;42.77;94610.16;4979704;28;20026;-71
2021/07/10 14:32:22;;;;;;;4.75;2.85;;;;;;;28.49;43.05;94615.75;4990957;28;20034;-72
2021/07/10 14:34:48;;;;;;;3.53;2.75;;;;;;;28.56;43.33;94616.19;4995185;28;20022;-71
2021/07/10 14:37:13;;;;;;;2.70;2.50;;;;;;;28.55;43.40;94611.13;5005108;28;20088;-72
2021/07/10 14:39:38;;;;;;;3.38;2.72;;;;;;;28.51;43.24;94608.25;5000362;28;20545;-70
2021/07/10 14:42:04;;;;;;;4.90;2.63;;;;;;;28.44;43.85;94607.84;4998345;28;20037;-72
2021/07/10 14:44:30;;;;;;;3.25;2.85;;;;;;;28.46;43.41;94594.22;4999689;28;20042;-71
2021/07/10 14:46:55;;;;;;;2.95;2.75;;;;;;;28.54;43.30;94597.03;4998413;28;20414;-70
2021/07/10 14:49:20;;;;;;;2.70;2.50;;;;;;;28.35;44.11;94590.94;4998020;28;20026;-72
2021/07/10 14:51:46;;;;;;;5.63;2.80;;;;;;;28.45;43.79;94576.66;4995480;28;20091;-71
2021/07/10 14:54:11;;;;;;;5.05;2.50;;;;;;;28.44;43.59;94565.22;5002949;28;20080;-71
2021/07/10 14:56:39;;;;;;;3.03;2.70;;;;;;;28.40;43.36;94566.88;5002977;28;20522;-70
2021/07/10 14:59:04;;;;;;;3.20;2.80;;;;;;;28.33;44.37;94565.66;4987466;28;20029;-70
2021/07/10 15:01:30;;;;;;;2.97;2.78;;;;;;;28.22;44.02;94567.69;5007171;28;20530;-72
2021/07/10 15:03:55;;;;;;;2.95;2.42;;;;;;;28.33;44.24;94557.66;4994164;28;20511;-70
2021/07/10 15:06:21;;;;;;;3.15;2.50;;;;;;;28.08;44.80;94550.84;4991311;28;20023;-71
2021/07/10 15:08:46;;;;;;;16.13;3.08;;;;;;;28.08;43.71;94556.97;4970707;28;20045;-72
2021/07/10 15:11:12;;;;;;;3.97;2.70;;;;;;;28.01;44.47;94553.03;4966787;28;20042;-72
2021/07/10 15:13:37;;;;;;;5.60;2.90;;;;;;;27.89;44.41;94552.69;4967224;28;20030;-71
2021/07/10 15:16:04;;;;;;;2.85;2.65;;;;;;;27.95;44.22;94551.53;4983344;28;20034;-70
2021/07/10 15:18:31;;;;;;;4.50;2.67;;;;;;;28.01;44.70;94550.38;4967653;28;20483;-72
2021/07/10 15:20:56;;;;;;;2.95;2.63;;;;;;;28.04;44.95;94549.81;4993519;28;20026;-70
2021/07/10 15:23:22;;;;;;;4.32;2.35;;;;;;;28.12;44.59;94557.97;4999402;28;20052;-71
2021/07/10 15:25:50;;;;;;;4.32;2.65;;;;;;;27.98;45.05;94556.28;5016263;28;20415;-71
2021/07/10 15:28:16;;;;;;;3.40;2.33;;;;;;;28.02;44.67;94555.44;5000695;28;20041;-72
2021/07/10 15:30:41;;;;;;;3.00;2.70;;;;;;;28.02;44.46;94546.66;4999328;28;20276;-70
2021/07/10 15:33:07;;;;;;;7.95;2.83;;;;;;;27.72;44.16;94543.34;4979650;28;20031;-71
2021/07/10 15:35:32;;;;;;;7.22;3.08;;;;;;;27.80;44.80;94541.91;5004327;28;20041;-71
2021/07/10 15:38:00;;;;;;;5.60;3.20;;;;;;;27.99;44.71;94539.25;5000258;28;20045;-72
2021/07/10 15:40:29;;;;;;;4.63;2.58;;;;;;;28.00;44.50;94543.50;4995750;28;20104;-72
2021/07/10 15:42:55;;;;;;;15.18;3.70;;;;;;;27.80;44.87;94541.13;4993508;28;20108;-73
2021/07/10 15:45:20;;;;;;;3.65;2.63;;;;;;;27.70;44.20;94534.88;4999277;28;20438;-74
2021/07/10 15:47:46;;;;;;;4.35;2.55;;;;;;;27.91;44.77;94534.56;5012049;28;20033;-73
2021/07/10 15:50:14;;;;;;;6.00;2.47;;;;;;;27.80;44.30;94538.47;5011532;28;20025;-73
2021/07/10 15:52:40;;;;;;;4.70;2.97;;;;;;;27.79;44.64;94536.88;5011839;28;20479;-73
2021/07/10 15:55:07;;;;;;;6.13;3.00;;;;;;;27.61;44.55;94539.22;4996371;28;20092;-72
2021/07/10 15:57:32;;;;;;;2.88;2.67;;;;;;;27.53;44.42;94547.06;5009212;28;20021;-74
2021/07/10 15:59:58;;;;;;;3.47;2.80;;;;;;;27.69;45.27;94543.91;5009648;28;20431;-73
2021/07/10 16:02:23;;;;;;;4.90;2.55;;;;;;;27.38;45.36;94542.72;5014099;28;20049;-75
2021/07/10 16:04:48;;;;;;;6.13;2.65;;;;;;;27.29;45.74;94535.66;5010434;28;20079;-73
2021/07/10 16:07:14;;;;;;;2.90;2.65;;;;;;;27.21;45.58;94542.38;4995255;28;20018;-73
2021/07/10 16:09:39;;;;;;;3.00;2.63;;;;;;;27.00;45.67;94547.13;5001560;28;20030;-73
2021/07/10 16:12:05;;;;;;;3.38;2.30;;;;;;;27.02;46.48;94566.28;5007723;28;20022;-70
2021/07/10 16:14:31;;;;;;;2.65;2.45;;;;;;;27.00;45.37;94572.94;4992659;28;20116;-72
2021/07/10 16:16:56;;;;;;;2.85;2.65;;;;;;;27.04;46.96;94573.94;5003446;28;20034;-73
2021/07/10 16:19:22;;;;;;;2.67;2.47;;;;;;;27.14;46.20;94573.84;4991120;28;20064;-75
2021/07/10 16:21:47;;;;;;;5.60;2.60;;;;;;;27.04;45.81;94579.28;4969719;28;20042;-73
2021/07/10 16:24:13;;;;;;;9.40;2.50;;;;;;;26.85;44.73;94570.44;5005136;28;20030;-75
2021/07/10 16:26:45;;;;;;;5.78;2.13;;;;;;;26.84;45.20;94585.63;4968909;28;20608;-73
2021/07/10 16:29:10;;;;;;;3.35;2.38;;;;;;;26.78;45.13;94596.53;4999277;28;20487;-72
2021/07/10 16:31:36;;;;;;;4.28;2.65;;;;;;;26.68;45.18;94606.16;5003945;28;20109;-73
2021/07/10 16:34:02;;;;;;;5.90;2.60;;;;;;;26.62;45.03;94609.94;4986761;28;20109;-73
2021/07/10 16:36:28;;;;;;;4.22;2.20;;;;;;;26.60;45.83;94612.09;4994958;28;20030;-74
2021/07/10 16:38:53;;;;;;;2.38;2.03;;;;;;;26.48;46.00;94621.50;4989087;28;20533;-73
2021/07/10 16:41:19;;;;;;;2.78;2.55;;;;;;;26.45;45.13;94624.72;4991477;28;20084;-73